createdAt,value
2023-12-29T00:00:42.919Z,6.28
2023-12-29T00:03:33.432Z,6.11
2023-12-29T00:06:04.043Z,6.07
2023-12-29T00:08:32.931Z,5.92
2023-12-29T00:11:03.693Z,5.69
2023-12-29T00:13:31.811Z,5.70
2023-12-29T00:15:59.872Z,5.88
2023-12-29T00:18:28.155Z,5.95
2023-12-29T00:21:06.348Z,6.00
2023-12-29T00:23:36.464Z,5.96
2023-12-29T00:26:05.033Z,6.05
2023-12-29T00:28:34.043Z,6.09
2023-12-29T00:31:03.591Z,5.91
2023-12-29T00:33:33.337Z,5.66
2023-12-29T00:36:03.170Z,5.50
2023-12-29T00:38:31.913Z,5.44
2023-12-29T00:41:02.332Z,5.39
2023-12-29T00:43:30.404Z,5.32
2023-12-29T00:45:58.277Z,5.22
2023-12-29T00:48:26.902Z,5.17
2023-12-29T00:50:54.592Z,5.29
2023-12-29T00:53:27.468Z,5.33
2023-12-29T00:55:55.208Z,5.28
2023-12-29T00:58:23.416Z,5.26
2023-12-29T01:00:51.461Z,5.37
2023-12-29T01:03:21.042Z,5.50
2023-12-29T01:05:50.941Z,5.64
2023-12-29T01:08:19.308Z,5.68
2023-12-29T01:10:48.576Z,5.85
2023-12-29T01:13:16.715Z,6.07
2023-12-29T01:15:44.514Z,6.18
2023-12-29T01:18:13.029Z,6.26
2023-12-29T01:20:41.009Z,6.37
2023-12-29T01:23:09.404Z,6.48
2023-12-29T01:25:37.069Z,6.63
2023-12-29T01:28:07.335Z,6.58
2023-12-29T01:30:34.992Z,6.56
2023-12-29T01:33:03.779Z,6.55
2023-12-29T01:35:31.458Z,6.59
2023-12-29T01:37:59.927Z,6.67
2023-12-29T01:40:27.894Z,6.66
2023-12-29T01:42:55.972Z,6.73
2023-12-29T01:45:25.809Z,6.82
2023-12-29T01:47:54.638Z,6.95
2023-12-29T01:50:23.440Z,6.99
2023-12-29T01:52:53.821Z,6.97
2023-12-29T01:55:22.859Z,6.86
2023-12-29T01:57:52.302Z,6.81
2023-12-29T02:00:20.591Z,6.82
2023-12-29T02:02:51.173Z,6.78
2023-12-29T02:05:21.875Z,6.79
2023-12-29T02:07:53.023Z,6.74
2023-12-29T02:10:21.156Z,6.83
2023-12-29T02:12:49.431Z,6.70
2023-12-29T02:15:18.134Z,6.74
2023-12-29T02:17:49.026Z,6.81
2023-12-29T02:20:18.688Z,6.83
2023-12-29T02:22:46.905Z,6.84
2023-12-29T02:25:17.124Z,6.80
2023-12-29T02:27:53.188Z,6.83
2023-12-29T02:30:25.055Z,6.82
2023-12-29T02:32:56.760Z,6.80
2023-12-29T02:35:28.225Z,6.85
2023-12-29T02:37:58.083Z,6.81
2023-12-29T02:40:27.807Z,6.81
2023-12-29T02:42:56.353Z,6.84
2023-12-29T02:45:24.216Z,6.94
2023-12-29T02:47:52.817Z,6.73
2023-12-29T02:50:21.231Z,6.57
2023-12-29T02:52:52.242Z,6.38
2023-12-29T02:55:20.775Z,6.38
2023-12-29T02:57:51.059Z,6.28
2023-12-29T03:00:19.637Z,6.21
2023-12-29T03:02:47.874Z,6.16
2023-12-29T03:05:15.957Z,6.16
2023-12-29T03:07:44.207Z,6.15
2023-12-29T03:10:12.195Z,6.15
2023-12-29T03:12:40.426Z,6.17
2023-12-29T03:15:10.368Z,6.19
2023-12-29T03:17:39.197Z,6.10
2023-12-29T03:20:08.489Z,5.98
2023-12-29T03:22:37.097Z,5.96
2023-12-29T03:25:05.481Z,5.87
2023-12-29T03:27:34.081Z,5.77
2023-12-29T03:30:01.924Z,5.71
2023-12-29T03:32:32.000Z,5.87
2023-12-29T03:34:59.649Z,6.00
2023-12-29T03:37:28.109Z,6.09
2023-12-29T03:39:56.169Z,5.98
2023-12-29T03:42:24.858Z,5.77
2023-12-29T03:44:55.501Z,5.64
2023-12-29T03:47:23.662Z,5.46
2023-12-29T03:49:52.770Z,5.53
2023-12-29T03:52:22.446Z,5.55
2023-12-29T03:54:50.683Z,5.54
2023-12-29T03:57:20.211Z,5.67
2023-12-29T03:59:48.201Z,5.73
2023-12-29T04:02:17.727Z,5.88
2023-12-29T04:04:45.512Z,5.90
2023-12-29T04:07:15.639Z,5.98
2023-12-29T04:09:43.518Z,6.06
2023-12-29T04:12:11.644Z,6.15
2023-12-29T04:14:39.396Z,6.19
2023-12-29T04:17:07.781Z,6.15
2023-12-29T04:19:35.897Z,6.12
2023-12-29T04:22:04.283Z,5.99
2023-12-29T04:24:33.416Z,6.06
2023-12-29T04:27:01.783Z,6.04
2023-12-29T04:29:29.486Z,5.90
2023-12-29T04:31:57.757Z,5.80
2023-12-29T04:34:25.511Z,5.78
2023-12-29T04:36:53.705Z,5.84
2023-12-29T04:39:21.605Z,5.94
2023-12-29T04:41:51.539Z,5.99
2023-12-29T04:44:19.390Z,5.93
2023-12-29T04:46:47.626Z,5.97
2023-12-29T04:49:15.546Z,5.95
2023-12-29T04:51:43.649Z,5.85
2023-12-29T04:54:13.147Z,5.86
2023-12-29T04:56:41.329Z,6.02
2023-12-29T04:59:10.234Z,6.16
2023-12-29T05:01:38.460Z,6.20
2023-12-29T05:04:06.791Z,6.18
2023-12-29T05:06:38.813Z,6.07
2023-12-29T05:09:06.623Z,6.17
2023-12-29T05:11:34.887Z,6.11
2023-12-29T05:14:02.651Z,6.25
2023-12-29T05:16:32.484Z,6.36
2023-12-29T05:19:00.249Z,6.40
2023-12-29T05:21:28.380Z,6.45
2023-12-29T05:23:56.040Z,6.55
2023-12-29T05:26:24.030Z,6.61
2023-12-29T05:28:51.811Z,6.63
2023-12-29T05:31:20.001Z,6.68
2023-12-29T05:33:49.388Z,6.70
2023-12-29T05:36:17.522Z,6.65
2023-12-29T05:38:47.058Z,6.61
2023-12-29T05:41:15.668Z,6.78
2023-12-29T05:43:43.530Z,6.85
2023-12-29T05:46:11.925Z,6.82
2023-12-29T05:48:39.901Z,6.96
2023-12-29T05:51:11.654Z,6.92
2023-12-29T05:53:41.540Z,6.95
2023-12-29T05:56:13.333Z,6.91
2023-12-29T05:58:41.980Z,6.87
2023-12-29T06:01:10.435Z,6.82
2023-12-29T06:03:38.270Z,6.71
2023-12-29T06:06:07.284Z,6.72
2023-12-29T06:08:36.282Z,6.78
2023-12-29T06:11:04.690Z,6.80
2023-12-29T06:13:32.259Z,6.98
2023-12-29T06:16:00.468Z,7.07
2023-12-29T06:18:30.049Z,7.05
2023-12-29T06:20:59.584Z,7.04
2023-12-29T06:23:29.961Z,7.06
2023-12-29T06:25:59.697Z,7.19
2023-12-29T06:28:29.596Z,7.36
2023-12-29T06:31:03.205Z,7.47
2023-12-29T06:33:32.315Z,7.40
2023-12-29T06:36:00.433Z,7.24
2023-12-29T06:38:28.003Z,7.03
2023-12-29T06:40:56.123Z,6.89
2023-12-29T06:43:25.161Z,6.92
2023-12-29T06:45:53.494Z,6.98
2023-12-29T06:48:21.741Z,7.07
2023-12-29T06:50:49.912Z,6.95
2023-12-29T06:53:17.493Z,6.96
2023-12-29T06:55:46.197Z,7.06
2023-12-29T06:58:13.730Z,7.13
2023-12-29T07:00:44.515Z,7.21
2023-12-29T07:03:14.584Z,7.44
2023-12-29T07:05:43.181Z,7.59
2023-12-29T07:08:14.657Z,7.77
2023-12-29T07:10:43.325Z,7.95
2023-12-29T07:13:11.187Z,8.17
2023-12-29T07:15:43.817Z,8.18
2023-12-29T07:18:12.453Z,8.17
2023-12-29T07:20:43.167Z,8.13
2023-12-29T07:23:11.298Z,8.20
2023-12-29T07:25:39.605Z,8.30
2023-12-29T07:28:07.380Z,8.29
2023-12-29T07:30:35.644Z,8.27
2023-12-29T07:33:05.177Z,8.38
2023-12-29T07:35:33.831Z,8.49
2023-12-29T07:38:01.613Z,8.36
2023-12-29T07:40:29.829Z,8.37
2023-12-29T07:42:57.543Z,8.41
2023-12-29T07:45:26.176Z,8.32
2023-12-29T07:47:54.319Z,8.27
2023-12-29T07:50:23.992Z,8.27
2023-12-29T07:52:52.050Z,8.33
2023-12-29T07:55:20.309Z,8.30
2023-12-29T07:57:48.603Z,8.39
2023-12-29T08:00:17.764Z,8.57
2023-12-29T08:02:46.160Z,8.55
2023-12-29T08:05:15.363Z,8.55
2023-12-29T08:07:45.281Z,8.75
2023-12-29T08:10:14.462Z,8.77
2023-12-29T08:12:42.998Z,8.79
2023-12-29T08:15:12.797Z,8.89
2023-12-29T08:17:40.586Z,8.99
2023-12-29T08:20:12.191Z,9.03
2023-12-29T08:22:40.303Z,9.16
2023-12-29T08:25:11.026Z,9.27
2023-12-29T08:27:38.879Z,9.25
2023-12-29T08:30:08.420Z,9.25
2023-12-29T08:32:36.948Z,9.33
2023-12-29T08:35:06.144Z,9.38
2023-12-29T08:37:34.419Z,9.65
2023-12-29T08:40:02.914Z,9.74
2023-12-29T08:42:32.464Z,9.60
2023-12-29T08:45:01.248Z,9.50
2023-12-29T08:47:29.260Z,9.44
2023-12-29T08:49:58.031Z,9.48
2023-12-29T08:52:26.099Z,9.66
2023-12-29T08:54:54.739Z,9.89
2023-12-29T08:57:22.907Z,10.10
2023-12-29T08:59:52.810Z,10.39
2023-12-29T09:02:23.053Z,10.56
2023-12-29T09:04:51.954Z,10.50
2023-12-29T09:07:20.015Z,10.59
2023-12-29T09:09:51.420Z,10.65
2023-12-29T09:12:19.473Z,10.75
2023-12-29T09:14:48.160Z,10.84
2023-12-29T09:17:18.120Z,10.98
2023-12-29T09:19:51.451Z,10.89
2023-12-29T09:22:24.514Z,10.85
2023-12-29T09:24:55.792Z,11.00
2023-12-29T09:27:24.232Z,11.05
2023-12-29T09:29:53.785Z,11.20
2023-12-29T09:32:23.521Z,11.31
2023-12-29T09:34:51.775Z,11.22
2023-12-29T09:37:19.855Z,11.30
2023-12-29T09:39:48.339Z,11.49
2023-12-29T09:42:23.197Z,11.69
2023-12-29T09:44:53.516Z,11.80
2023-12-29T09:47:24.792Z,12.01
2023-12-29T09:49:55.806Z,11.93
2023-12-29T09:52:24.637Z,11.99
2023-12-29T09:54:54.086Z,12.03
2023-12-29T09:57:22.389Z,12.24
2023-12-29T09:59:52.405Z,12.73
2023-12-29T10:02:23.091Z,12.75
2023-12-29T10:04:51.859Z,12.81
2023-12-29T10:07:30.328Z,12.97
2023-12-29T10:10:00.379Z,13.03
2023-12-29T10:12:30.154Z,13.05
2023-12-29T10:15:06.978Z,12.87
2023-12-29T10:17:50.880Z,12.94
2023-12-29T10:20:33.351Z,13.01
2023-12-29T10:23:10.376Z,12.88
2023-12-29T10:25:39.583Z,12.63
2023-12-29T10:28:08.640Z,12.80
2023-12-29T10:30:37.963Z,13.03
2023-12-29T10:33:08.184Z,12.87
2023-12-29T10:35:37.600Z,12.88
2023-12-29T10:38:15.065Z,12.89
2023-12-29T10:40:44.640Z,12.82
2023-12-29T10:43:13.002Z,12.92
2023-12-29T10:45:42.024Z,13.07
2023-12-29T10:48:11.872Z,13.20
2023-12-29T10:50:47.101Z,13.28
2023-12-29T10:53:18.756Z,13.59
2023-12-29T10:55:47.919Z,13.84
2023-12-29T10:58:18.056Z,13.52
2023-12-29T11:00:46.967Z,13.46
2023-12-29T11:03:17.921Z,13.37
2023-12-29T11:05:48.107Z,13.03
2023-12-29T11:08:22.638Z,12.87
2023-12-29T11:10:51.963Z,12.81
2023-12-29T11:13:23.371Z,12.72
2023-12-29T11:15:53.821Z,12.72
2023-12-29T11:18:24.110Z,12.70
2023-12-29T11:20:53.693Z,12.62
2023-12-29T11:23:22.409Z,12.70
2023-12-29T11:25:54.506Z,12.84
2023-12-29T11:28:22.698Z,12.81
2023-12-29T11:30:51.801Z,12.83
2023-12-29T11:33:28.123Z,13.04
2023-12-29T11:36:03.701Z,13.25
2023-12-29T11:38:44.879Z,13.25
2023-12-29T11:41:23.130Z,13.18
2023-12-29T11:43:58.456Z,13.24
2023-12-29T11:46:37.518Z,13.43
2023-12-29T11:49:08.154Z,13.78
2023-12-29T11:51:37.665Z,13.99
2023-12-29T11:54:06.741Z,14.05
2023-12-29T11:56:39.691Z,14.26
2023-12-29T11:59:15.516Z,14.17
2023-12-29T12:01:47.669Z,13.98
2023-12-29T12:04:38.668Z,13.71
2023-12-29T12:07:11.459Z,13.62
2023-12-29T12:09:39.696Z,13.52
2023-12-29T12:12:07.876Z,13.59
2023-12-29T12:14:59.969Z,13.28
2023-12-29T12:17:32.090Z,13.11
2023-12-29T12:20:04.236Z,13.10
2023-12-29T12:22:35.783Z,12.96
2023-12-29T12:25:06.714Z,13.00
2023-12-29T12:27:39.106Z,13.08
2023-12-29T12:30:08.355Z,13.12
2023-12-29T12:32:36.969Z,13.15
2023-12-29T12:35:16.905Z,13.19
2023-12-29T12:37:46.131Z,12.97
2023-12-29T12:40:26.842Z,12.83
2023-12-29T12:42:55.455Z,12.84
2023-12-29T12:45:27.452Z,12.73
2023-12-29T12:48:02.259Z,12.68
2023-12-29T12:50:32.792Z,12.70
2023-12-29T12:53:03.074Z,12.71
2023-12-29T12:55:38.887Z,12.71
2023-12-29T12:58:07.181Z,12.67
2023-12-29T13:00:35.692Z,12.62
2023-12-29T13:03:04.944Z,12.52
2023-12-29T13:05:36.351Z,12.50
2023-12-29T13:08:07.274Z,12.48
2023-12-29T13:10:35.662Z,12.37
2023-12-29T13:13:04.419Z,12.44
2023-12-29T13:15:32.651Z,12.48
2023-12-29T13:18:01.333Z,12.47
2023-12-29T13:20:29.790Z,12.36
2023-12-29T13:23:00.262Z,12.35
2023-12-29T13:25:29.374Z,12.11
2023-12-29T13:27:58.498Z,12.00
2023-12-29T13:30:26.973Z,11.80
2023-12-29T13:32:55.770Z,11.80
2023-12-29T13:35:30.197Z,11.81
2023-12-29T13:38:09.680Z,11.91
2023-12-29T13:40:44.188Z,11.97
2023-12-29T13:43:16.029Z,11.93
2023-12-29T13:45:44.594Z,11.80
2023-12-29T13:48:15.424Z,11.88
2023-12-29T13:50:46.688Z,11.80
2023-12-29T13:53:21.599Z,11.74
2023-12-29T13:55:50.136Z,11.52
2023-12-29T13:58:19.160Z,11.60
2023-12-29T14:00:55.067Z,11.61
2023-12-29T14:03:29.086Z,11.52
2023-12-29T14:06:00.960Z,11.33
2023-12-29T14:08:34.214Z,11.33
2023-12-29T14:11:02.146Z,11.20
2023-12-29T14:13:30.735Z,11.40
2023-12-29T14:16:04.744Z,11.25
2023-12-29T14:18:56.245Z,11.39
2023-12-29T14:21:27.584Z,11.23
2023-12-29T14:24:08.916Z,11.20
2023-12-29T14:26:37.761Z,11.05
2023-12-29T14:29:08.323Z,10.96
2023-12-29T14:31:37.574Z,11.00
2023-12-29T14:34:06.227Z,11.02
2023-12-29T14:36:34.356Z,10.87
2023-12-29T14:39:07.474Z,10.92
2023-12-29T14:41:35.431Z,10.80
2023-12-29T14:44:05.043Z,10.64
2023-12-29T14:46:33.098Z,10.52
2023-12-29T14:49:01.733Z,10.59
2023-12-29T14:51:30.174Z,10.57
2023-12-29T14:53:58.530Z,10.56
2023-12-29T14:56:27.769Z,10.53
2023-12-29T14:58:56.069Z,10.47
2023-12-29T15:01:24.942Z,10.47
2023-12-29T15:03:53.343Z,10.39
2023-12-29T15:06:21.171Z,10.49
2023-12-29T15:08:49.920Z,10.40
2023-12-29T15:11:17.791Z,10.39
2023-12-29T15:13:48.075Z,10.46
2023-12-29T15:16:15.962Z,10.32
2023-12-29T15:18:44.328Z,10.33
2023-12-29T15:21:12.611Z,10.35
2023-12-29T15:23:41.273Z,10.39
2023-12-29T15:26:08.935Z,10.45
2023-12-29T15:28:37.256Z,10.44
2023-12-29T15:31:07.374Z,10.44
2023-12-29T15:33:36.047Z,10.27
2023-12-29T15:36:04.657Z,10.21
2023-12-29T15:38:33.454Z,10.13
2023-12-29T15:41:07.132Z,10.20
2023-12-29T15:43:35.925Z,10.18
2023-12-29T15:46:13.170Z,10.06
2023-12-29T15:48:43.528Z,10.08
2023-12-29T15:51:11.817Z,10.01
2023-12-29T15:53:40.965Z,9.90
2023-12-29T15:56:09.263Z,9.86
2023-12-29T15:58:37.437Z,9.87
2023-12-29T16:01:05.831Z,9.92
2023-12-29T16:03:35.213Z,10.03
2023-12-29T16:06:05.102Z,10.18
2023-12-29T16:08:33.937Z,10.22
2023-12-29T16:11:01.972Z,10.35
2023-12-29T16:13:30.048Z,10.20
2023-12-29T16:15:57.747Z,10.37
2023-12-29T16:18:26.003Z,10.39
2023-12-29T16:20:54.568Z,10.52
2023-12-29T16:23:24.521Z,10.56
2023-12-29T16:25:52.316Z,10.60
2023-12-29T16:28:20.624Z,10.61
2023-12-29T16:30:48.298Z,10.68
2023-12-29T16:33:16.726Z,10.62
2023-12-29T16:35:44.422Z,10.64
2023-12-29T16:38:12.917Z,10.68
2023-12-29T16:40:45.468Z,10.67
2023-12-29T16:43:13.716Z,10.75
2023-12-29T16:45:41.495Z,10.76
2023-12-29T16:48:09.518Z,10.69
2023-12-29T16:50:37.333Z,10.76
2023-12-29T16:53:05.656Z,10.83
2023-12-29T16:55:33.301Z,10.85
2023-12-29T16:58:02.891Z,10.80
2023-12-29T17:00:30.900Z,10.80
2023-12-29T17:02:59.558Z,10.80
2023-12-29T17:05:27.669Z,10.82
2023-12-29T17:07:57.032Z,10.70
2023-12-29T17:10:25.193Z,10.75
2023-12-29T17:12:53.928Z,10.79
2023-12-29T17:15:23.295Z,10.93
2023-12-29T17:17:51.771Z,10.80
2023-12-29T17:20:19.741Z,10.70
2023-12-29T17:22:48.746Z,10.73
2023-12-29T17:25:16.682Z,10.77
2023-12-29T17:27:47.212Z,10.75
2023-12-29T17:30:15.254Z,10.85
2023-12-29T17:32:45.260Z,10.82
2023-12-29T17:35:12.920Z,10.81
2023-12-29T17:37:41.088Z,10.59
2023-12-29T17:40:10.271Z,10.56
2023-12-29T17:42:38.533Z,10.67
2023-12-29T17:45:07.069Z,10.66
2023-12-29T17:47:35.027Z,10.51
2023-12-29T17:50:05.473Z,10.51
2023-12-29T17:52:33.719Z,10.43
2023-12-29T17:55:01.519Z,10.40
2023-12-29T17:57:29.932Z,10.42
2023-12-29T17:59:57.812Z,10.35
2023-12-29T18:02:30.432Z,10.24
2023-12-29T18:04:58.434Z,10.21
2023-12-29T18:07:28.024Z,10.34
2023-12-29T18:09:56.405Z,10.24
2023-12-29T18:12:25.618Z,10.15
2023-12-29T18:14:53.684Z,10.18
2023-12-29T18:17:22.151Z,10.19
2023-12-29T18:19:49.895Z,10.17
2023-12-29T18:22:18.952Z,10.24
2023-12-29T18:24:48.520Z,10.21
2023-12-29T18:27:18.985Z,10.29
2023-12-29T18:29:47.492Z,10.39
2023-12-29T18:32:20.212Z,10.34
2023-12-29T18:34:50.723Z,10.38
2023-12-29T18:37:19.604Z,10.43
2023-12-29T18:39:49.367Z,10.50
2023-12-29T18:42:17.989Z,10.54
2023-12-29T18:44:45.837Z,10.59
2023-12-29T18:47:14.100Z,10.63
2023-12-29T18:49:42.201Z,10.70
2023-12-29T18:52:12.737Z,10.75
2023-12-29T18:54:40.866Z,10.73
2023-12-29T18:57:10.803Z,10.65
2023-12-29T18:59:38.734Z,10.56
2023-12-29T19:02:07.969Z,10.49
2023-12-29T19:04:35.566Z,10.29
2023-12-29T19:07:03.933Z,10.20
2023-12-29T19:09:31.696Z,10.19
2023-12-29T19:12:00.573Z,10.18
2023-12-29T19:14:29.787Z,10.22
2023-12-29T19:16:57.876Z,10.17
2023-12-29T19:19:25.638Z,10.13
2023-12-29T19:21:54.312Z,10.09
2023-12-29T19:24:22.210Z,10.17
2023-12-29T19:26:51.556Z,10.16
2023-12-29T19:29:20.060Z,10.24
2023-12-29T19:31:49.833Z,10.25
2023-12-29T19:34:17.660Z,10.16
2023-12-29T19:36:46.226Z,10.15
2023-12-29T19:39:13.941Z,10.22
2023-12-29T19:41:42.222Z,10.24
2023-12-29T19:44:10.289Z,10.29
2023-12-29T19:46:42.092Z,10.32
2023-12-29T19:49:11.388Z,10.32
2023-12-29T19:51:39.957Z,10.26
2023-12-29T19:54:07.882Z,10.28
2023-12-29T19:56:37.025Z,10.33
2023-12-29T19:59:04.665Z,10.32
2023-12-29T20:01:38.613Z,10.37
2023-12-29T20:04:13.676Z,10.47
2023-12-29T20:06:42.124Z,10.55
2023-12-29T20:09:10.033Z,10.46
2023-12-29T20:11:39.915Z,10.47
2023-12-29T20:14:08.149Z,10.43
2023-12-29T20:16:36.775Z,10.43
2023-12-29T20:19:07.582Z,10.45
2023-12-29T20:21:37.415Z,10.49
2023-12-29T20:24:07.199Z,10.48
2023-12-29T20:26:37.374Z,10.53
2023-12-29T20:29:05.301Z,10.54
2023-12-29T20:31:37.149Z,10.47
2023-12-29T20:34:05.367Z,10.53
2023-12-29T20:36:34.075Z,10.62
2023-12-29T20:39:03.817Z,10.65
2023-12-29T20:41:32.605Z,10.51
2023-12-29T20:44:00.719Z,10.58
2023-12-29T20:46:29.292Z,10.62
2023-12-29T20:48:57.240Z,10.53
2023-12-29T20:51:25.577Z,10.60
2023-12-29T20:53:53.546Z,10.56
2023-12-29T20:56:23.411Z,10.53
2023-12-29T20:58:54.339Z,10.59
2023-12-29T21:01:25.020Z,10.64
2023-12-29T21:03:53.570Z,10.61
2023-12-29T21:06:22.014Z,10.58
2023-12-29T21:08:50.521Z,10.53
2023-12-29T21:11:20.209Z,10.59
2023-12-29T21:13:49.592Z,10.49
2023-12-29T21:16:20.190Z,10.47
2023-12-29T21:18:49.053Z,10.41
2023-12-29T21:21:17.703Z,10.45
2023-12-29T21:23:45.537Z,10.54
2023-12-29T21:26:21.344Z,10.51
2023-12-29T21:28:50.482Z,10.56
2023-12-29T21:31:20.564Z,10.67
2023-12-29T21:33:48.886Z,10.67
2023-12-29T21:36:24.257Z,10.60
2023-12-29T21:38:52.416Z,10.66
2023-12-29T21:41:21.599Z,10.69
2023-12-29T21:43:51.335Z,10.67
2023-12-29T21:46:19.707Z,10.76
2023-12-29T21:48:47.509Z,10.96
2023-12-29T21:51:15.705Z,10.83
2023-12-29T21:53:43.425Z,10.82
2023-12-29T21:56:11.601Z,10.84
2023-12-29T21:58:39.838Z,10.75
2023-12-29T22:01:36.036Z,10.83
2023-12-29T22:04:05.713Z,10.82
2023-12-29T22:06:37.186Z,10.82
2023-12-29T22:09:05.052Z,10.91
2023-12-29T22:11:33.448Z,10.84
2023-12-29T22:14:01.663Z,10.88
2023-12-29T22:16:30.450Z,10.86
2023-12-29T22:19:00.313Z,10.97
2023-12-29T22:21:28.773Z,10.81
2023-12-29T22:23:57.193Z,10.77
2023-12-29T22:26:28.029Z,10.77
2023-12-29T22:28:56.178Z,10.87
2023-12-29T22:31:24.364Z,10.75
2023-12-29T22:33:52.366Z,10.70
2023-12-29T22:36:22.873Z,10.70
2023-12-29T22:38:50.626Z,10.74
2023-12-29T22:41:23.746Z,10.69
2023-12-29T22:43:51.264Z,10.66
2023-12-29T22:46:23.493Z,10.64
2023-12-29T22:48:53.406Z,10.71
2023-12-29T22:51:23.598Z,10.88
2023-12-29T22:53:51.431Z,10.72
2023-12-29T22:56:22.589Z,10.73
2023-12-29T22:58:50.700Z,10.83
2023-12-29T23:01:19.639Z,10.80
2023-12-29T23:03:47.755Z,10.86
2023-12-29T23:06:16.530Z,10.84
2023-12-29T23:08:45.774Z,10.78
2023-12-29T23:11:14.400Z,10.76
2023-12-29T23:13:42.232Z,10.70
2023-12-29T23:16:11.346Z,10.71
2023-12-29T23:18:40.166Z,10.58
2023-12-29T23:21:12.653Z,10.63
2023-12-29T23:23:40.232Z,10.56
2023-12-29T23:26:10.258Z,10.50
2023-12-29T23:28:38.318Z,10.39
2023-12-29T23:31:08.879Z,10.44
2023-12-29T23:33:36.969Z,10.45
2023-12-29T23:36:06.538Z,10.51
2023-12-29T23:38:34.380Z,10.49
2023-12-29T23:41:02.793Z,10.37
2023-12-29T23:43:32.201Z,10.37
2023-12-29T23:46:00.473Z,10.38
2023-12-29T23:48:28.424Z,10.44
2023-12-29T23:50:56.784Z,10.44
2023-12-29T23:53:24.923Z,10.49
2023-12-29T23:55:53.014Z,10.51
2023-12-29T23:58:24.409Z,10.48
